Time;durP1;ratioP1;P1;durP2;ratioP2;P2;SDS_P1;SDS_P2;PMS_P1;PMS_P2;Temp;Humidity;BMP_temperature;BMP_pressure;BME280_temperature;BME280_humidity;BME280_pressure;Samples;Min_cycle;Max_cycle;Signal;HPM_P1;HPM_P2
2022/08/06 00:02:15;;;;;;;2.35;1.80;;;;;;;;;;5061498;28;20449;-84
2022/08/06 00:04:41;;;;;;;3.10;2.00;;;;;;;;;;5064309;28;20425;-84
2022/08/06 00:07:09;;;;;;;3.90;1.70;;;;;;;;;;5063240;28;20420;-83
2022/08/06 00:09:35;;;;;;;3.58;2.10;;;;;;;;;;5064759;28;20424;-83
2022/08/06 00:12:02;;;;;;;2.92;1.70;;;;;;;;;;5063029;28;20425;-83
2022/08/06 00:14:28;;;;;;;3.95;1.80;;;;;;;;;;5065028;28;20471;-84
2022/08/06 00:16:55;;;;;;;4.60;2.35;;;;;;;;;;5062551;28;20419;-84
2022/08/06 00:19:22;;;;;;;2.67;2.20;;;;;;;;;;5063261;28;20423;-83
2022/08/06 00:21:49;;;;;;;3.40;2.00;;;;;;;;;;5063815;28;21676;-83
2022/08/06 00:24:17;;;;;;;4.10;2.08;;;;;;;;;;5065759;28;20917;-83
2022/08/06 00:26:43;;;;;;;3.40;1.90;;;;;;;;;;5067839;28;20431;-83
2022/08/06 00:29:10;;;;;;;2.67;2.40;;;;;;;;;;5064673;28;20910;-83
2022/08/06 00:31:36;;;;;;;3.50;2.10;;;;;;;;;;5064639;28;20774;-83
2022/08/06 00:34:03;;;;;;;2.53;1.90;;;;;;;;;;5065956;28;20451;-83
2022/08/06 00:36:30;;;;;;;3.22;2.00;;;;;;;;;;5064221;28;20455;-83
2022/08/06 00:38:57;;;;;;;4.30;2.20;;;;;;;;;;5064860;28;20483;-84
2022/08/06 00:41:25;;;;;;;4.97;2.35;;;;;;;;;;5066665;28;20460;-85
2022/08/06 00:43:51;;;;;;;3.05;2.10;;;;;;;;;;5063744;28;20462;-85
2022/08/06 00:46:18;;;;;;;2.85;2.00;;;;;;;;;;5065560;28;20951;-84
2022/08/06 00:48:44;;;;;;;3.40;2.63;;;;;;;;;;5061184;28;20431;-83
2022/08/06 00:51:11;;;;;;;3.65;2.65;;;;;;;;;;5061278;28;20434;-82
2022/08/06 00:53:37;;;;;;;4.47;2.67;;;;;;;;;;5044691;28;20417;-83
2022/08/06 00:56:04;;;;;;;3.27;2.60;;;;;;;;;;5062595;28;21008;-82
2022/08/06 00:58:33;;;;;;;3.55;2.55;;;;;;;;;;5062256;28;20438;-84
2022/08/06 01:01:00;;;;;;;3.37;2.63;;;;;;;;;;5063028;28;20427;-84
2022/08/06 01:03:26;;;;;;;5.05;2.50;;;;;;;;;;5062658;28;20439;-84
2022/08/06 01:05:52;;;;;;;4.55;2.70;;;;;;;;;;5064703;28;20427;-84
2022/08/06 01:08:19;;;;;;;5.22;2.80;;;;;;;;;;5061201;28;20447;-83
2022/08/06 01:10:45;;;;;;;2.67;2.47;;;;;;;;;;5061813;28;21270;-83
2022/08/06 01:13:12;;;;;;;5.30;3.00;;;;;;;;;;5064839;28;20420;-83
2022/08/06 01:15:42;;;;;;;2.67;2.47;;;;;;;;;;5063396;28;20454;-82
2022/08/06 01:18:10;;;;;;;5.03;2.80;;;;;;;;;;5063435;28;20426;-82
2022/08/06 01:20:46;;;;;;;5.13;2.95;;;;;;;;;;5060928;28;20425;-83
2022/08/06 01:23:22;;;;;;;3.70;2.80;;;;;;;;;;5064446;28;20425;-84
2022/08/06 01:26:12;;;;;;;3.80;2.70;;;;;;;;;;5065912;28;20429;-84
2022/08/06 01:28:43;;;;;;;3.97;2.80;;;;;;;;;;5061139;28;20494;-83
2022/08/06 01:31:11;;;;;;;3.40;2.88;;;;;;;;;;5065264;28;20423;-85
2022/08/06 01:33:40;;;;;;;2.50;2.30;;;;;;;;;;5065604;28;20421;-84
2022/08/06 01:36:08;;;;;;;5.75;2.75;;;;;;;;;;5065783;28;20496;-85
2022/08/06 01:38:37;;;;;;;3.90;2.75;;;;;;;;;;5062438;28;20428;-83
2022/08/06 01:41:05;;;;;;;3.45;2.70;;;;;;;;;;5061071;28;21105;-86
2022/08/06 01:43:32;;;;;;;4.07;3.17;;;;;;;;;;5059262;28;20498;-84
2022/08/06 01:46:01;;;;;;;3.95;3.10;;;;;;;;;;5062096;28;20450;-83
2022/08/06 01:48:31;;;;;;;3.17;2.88;;;;;;;;;;5062371;28;20436;-83
2022/08/06 01:50:59;;;;;;;4.90;3.80;;;;;;;;;;5066132;28;20792;-83
2022/08/06 01:53:29;;;;;;;4.50;3.28;;;;;;;;;;5063058;28;20425;-83
2022/08/06 01:55:58;;;;;;;6.50;3.60;;;;;;;;;;5063723;28;20423;-83
2022/08/06 01:58:27;;;;;;;3.42;3.10;;;;;;;;;;5065362;28;20437;-83
2022/08/06 02:00:55;;;;;;;6.20;3.97;;;;;;;;;;5067168;28;20805;-83
2022/08/06 02:03:25;;;;;;;3.83;3.30;;;;;;;;;;5066232;28;20427;-84
2022/08/06 02:05:53;;;;;;;4.90;3.80;;;;;;;;;;5066791;28;20438;-84
2022/08/06 02:08:21;;;;;;;3.97;3.58;;;;;;;;;;5066504;28;20427;-83
2022/08/06 02:10:49;;;;;;;6.68;3.70;;;;;;;;;;5066553;28;20431;-84
2022/08/06 02:13:16;;;;;;;7.72;4.00;;;;;;;;;;5067544;28;20432;-83
2022/08/06 02:15:44;;;;;;;4.75;3.40;;;;;;;;;;5067267;28;20476;-85
2022/08/06 02:18:12;;;;;;;4.03;3.60;;;;;;;;;;5066107;28;20809;-83
2022/08/06 02:20:41;;;;;;;7.28;4.00;;;;;;;;;;5065099;28;20423;-83
2022/08/06 02:23:10;;;;;;;4.40;3.80;;;;;;;;;;5068310;28;20961;-84
2022/08/06 02:25:39;;;;;;;4.53;4.13;;;;;;;;;;5066943;28;20898;-84
2022/08/06 02:28:06;;;;;;;8.00;4.50;;;;;;;;;;5065562;28;20423;-84
2022/08/06 02:30:35;;;;;;;5.20;4.10;;;;;;;;;;5069004;28;20442;-84
2022/08/06 02:33:01;;;;;;;6.43;3.85;;;;;;;;;;5066922;28;20427;-84
2022/08/06 02:35:28;;;;;;;5.25;4.50;;;;;;;;;;5064869;28;20915;-84
2022/08/06 02:38:02;;;;;;;5.13;4.15;;;;;;;;;;5064140;28;20436;-83
2022/08/06 02:40:32;;;;;;;5.45;3.53;;;;;;;;;;5065621;28;20433;-83
2022/08/06 02:43:04;;;;;;;5.60;4.10;;;;;;;;;;5064969;28;20520;-84
2022/08/06 02:45:33;;;;;;;4.85;4.20;;;;;;;;;;5066772;28;20854;-85
2022/08/06 02:48:03;;;;;;;6.03;4.10;;;;;;;;;;5065569;28;20458;-84
2022/08/06 02:50:32;;;;;;;5.25;4.30;;;;;;;;;;5067324;28;20429;-84
2022/08/06 02:53:02;;;;;;;5.80;4.25;;;;;;;;;;5065567;28;20961;-83
2022/08/06 02:55:31;;;;;;;6.30;4.97;;;;;;;;;;5064012;28;20419;-83
2022/08/06 02:58:00;;;;;;;6.18;4.47;;;;;;;;;;5065325;28;20425;-84
2022/08/06 03:00:28;;;;;;;6.70;4.80;;;;;;;;;;5082269;28;20419;-83
2022/08/06 03:02:56;;;;;;;4.72;4.32;;;;;;;;;;5066655;28;20427;-83
2022/08/06 03:05:23;;;;;;;4.80;4.00;;;;;;;;;;5065483;28;20429;-84
2022/08/06 03:07:52;;;;;;;5.30;4.90;;;;;;;;;;5065231;28;20436;-84
2022/08/06 03:10:21;;;;;;;5.47;4.95;;;;;;;;;;5065397;28;20467;-83
2022/08/06 03:12:49;;;;;;;5.72;5.05;;;;;;;;;;5066815;28;20417;-84
2022/08/06 03:15:18;;;;;;;6.40;4.90;;;;;;;;;;5067691;28;21404;-84
2022/08/06 03:17:45;;;;;;;5.38;4.88;;;;;;;;;;5068756;28;20423;-83
2022/08/06 03:20:13;;;;;;;5.75;4.82;;;;;;;;;;5066211;28;20781;-84
2022/08/06 03:22:40;;;;;;;5.18;4.60;;;;;;;;;;5068655;28;20421;-83
2022/08/06 03:25:08;;;;;;;4.63;4.22;;;;;;;;;;5066655;28;20431;-83
2022/08/06 03:27:36;;;;;;;4.73;4.23;;;;;;;;;;5062016;28;20455;-84
2022/08/06 03:30:04;;;;;;;5.55;4.20;;;;;;;;;;5063138;28;20431;-83
2022/08/06 03:32:31;;;;;;;5.40;4.90;;;;;;;;;;5064510;28;20428;-83
2022/08/06 03:34:59;;;;;;;6.88;4.90;;;;;;;;;;5063138;28;20521;-84
2022/08/06 03:37:26;;;;;;;6.20;5.60;;;;;;;;;;5064033;28;20806;-83
2022/08/06 03:39:52;;;;;;;5.20;4.70;;;;;;;;;;5062158;28;20477;-85
2022/08/06 03:42:19;;;;;;;6.38;5.15;;;;;;;;;;5061462;28;20424;-83
2022/08/06 03:44:47;;;;;;;6.07;5.20;;;;;;;;;;5063829;28;20421;-83
2022/08/06 03:47:15;;;;;;;5.70;5.15;;;;;;;;;;5063706;28;20448;-83
2022/08/06 03:49:42;;;;;;;6.85;4.78;;;;;;;;;;5063450;28;20949;-84
2022/08/06 03:52:11;;;;;;;5.30;4.80;;;;;;;;;;5061594;28;21559;-83
2022/08/06 03:54:44;;;;;;;6.22;4.55;;;;;;;;;;5066489;28;20428;-83
2022/08/06 03:57:12;;;;;;;6.03;4.90;;;;;;;;;;5064971;28;20431;-83
2022/08/06 03:59:40;;;;;;;5.35;4.85;;;;;;;;;;5064970;28;20435;-84
2022/08/06 04:02:08;;;;;;;5.13;4.57;;;;;;;;;;5066738;28;20789;-82
2022/08/06 04:04:35;;;;;;;5.40;4.78;;;;;;;;;;5067573;28;20435;-85
2022/08/06 04:07:02;;;;;;;6.80;4.90;;;;;;;;;;5064080;28;20421;-83
2022/08/06 04:09:30;;;;;;;6.17;5.47;;;;;;;;;;5066734;28;21053;-84
2022/08/06 04:11:57;;;;;;;6.55;5.95;;;;;;;;;;5067613;28;20442;-84
2022/08/06 04:14:24;;;;;;;6.00;5.40;;;;;;;;;;5067852;28;21015;-84
2022/08/06 04:16:51;;;;;;;5.95;5.40;;;;;;;;;;5067930;28;20435;-85
2022/08/06 04:19:19;;;;;;;7.57;5.10;;;;;;;;;;5064177;28;20520;-84
2022/08/06 04:21:46;;;;;;;6.10;5.10;;;;;;;;;;5063788;28;20432;-83
2022/08/06 04:24:13;;;;;;;6.18;5.57;;;;;;;;;;5064007;28;20452;-83
2022/08/06 04:26:42;;;;;;;7.45;4.90;;;;;;;;;;5063758;28;20431;-83
2022/08/06 04:29:09;;;;;;;5.95;4.88;;;;;;;;;;5064655;28;20821;-83
2022/08/06 04:31:37;;;;;;;6.07;4.93;;;;;;;;;;5060606;28;20443;-83
2022/08/06 04:34:04;;;;;;;7.45;5.70;;;;;;;;;;5064264;28;20444;-83
2022/08/06 04:36:32;;;;;;;6.43;5.70;;;;;;;;;;5063155;28;20427;-82
2022/08/06 04:38:58;;;;;;;6.77;6.07;;;;;;;;;;5064170;28;20494;-83
2022/08/06 04:41:25;;;;;;;6.15;5.55;;;;;;;;;;5064000;28;20439;-82
2022/08/06 04:43:52;;;;;;;6.70;6.03;;;;;;;;;;5061514;28;20958;-82
2022/08/06 04:46:20;;;;;;;6.88;5.88;;;;;;;;;;5062570;28;20435;-83
2022/08/06 04:48:46;;;;;;;6.13;5.53;;;;;;;;;;5062045;28;20422;-83
2022/08/06 04:51:13;;;;;;;6.35;5.75;;;;;;;;;;5063325;28;20943;-84
2022/08/06 04:53:42;;;;;;;5.93;5.32;;;;;;;;;;5059074;28;21136;-83
2022/08/06 04:56:09;;;;;;;8.98;5.72;;;;;;;;;;5064277;28;20792;-82
2022/08/06 04:58:36;;;;;;;6.67;5.97;;;;;;;;;;5063372;28;20424;-83
2022/08/06 05:01:03;;;;;;;6.20;5.60;;;;;;;;;;5061849;28;20463;-82
2022/08/06 05:03:30;;;;;;;6.50;5.90;;;;;;;;;;5063784;28;20964;-84
2022/08/06 05:06:02;;;;;;;6.65;5.53;;;;;;;;;;5062252;28;20481;-83
2022/08/06 05:08:30;;;;;;;6.70;6.00;;;;;;;;;;5062732;28;20551;-84
2022/08/06 05:11:02;;;;;;;7.68;6.10;;;;;;;;;;5063727;28;20518;-83
2022/08/06 05:13:31;;;;;;;6.88;5.90;;;;;;;;;;5060975;28;20427;-82
2022/08/06 05:15:59;;;;;;;5.88;5.28;;;;;;;;;;5062832;28;20432;-84
2022/08/06 05:18:26;;;;;;;6.80;6.10;;;;;;;;;;5060335;28;21493;-82
2022/08/06 05:20:53;;;;;;;6.45;5.30;;;;;;;;;;5063170;28;20824;-83
2022/08/06 05:23:21;;;;;;;6.80;6.10;;;;;;;;;;5060379;28;20425;-84
2022/08/06 05:25:48;;;;;;;6.25;5.70;;;;;;;;;;5062468;28;20802;-83
2022/08/06 05:28:18;;;;;;;7.25;6.28;;;;;;;;;;5059822;28;20433;-84
2022/08/06 05:30:45;;;;;;;7.22;5.50;;;;;;;;;;5062324;28;20856;-82
2022/08/06 05:33:11;;;;;;;6.90;5.00;;;;;;;;;;5061576;28;20423;-84
2022/08/06 05:35:38;;;;;;;7.00;5.40;;;;;;;;;;5062649;28;20433;-83
2022/08/06 05:38:04;;;;;;;7.00;5.93;;;;;;;;;;5061209;28;20431;-83
2022/08/06 05:40:35;;;;;;;5.90;5.30;;;;;;;;;;5062245;28;20423;-82
2022/08/06 05:43:01;;;;;;;6.80;6.13;;;;;;;;;;5060719;28;21080;-84
2022/08/06 05:45:29;;;;;;;6.28;5.68;;;;;;;;;;5061997;28;20450;-82
2022/08/06 05:47:57;;;;;;;7.90;5.85;;;;;;;;;;5062448;28;20408;-82
2022/08/06 05:50:26;;;;;;;5.50;4.80;;;;;;;;;;5061899;28;20880;-83
2022/08/06 05:52:56;;;;;;;5.80;5.30;;;;;;;;;;5060832;28;20427;-83
2022/08/06 05:55:26;;;;;;;5.75;5.00;;;;;;;;;;5063100;28;20937;-83
2022/08/06 05:57:53;;;;;;;5.35;4.85;;;;;;;;;;5059290;28;20426;-82
2022/08/06 06:00:21;;;;;;;5.38;4.88;;;;;;;;;;5063212;28;20429;-83
2022/08/06 06:02:50;;;;;;;5.50;5.00;;;;;;;;;;5060921;28;20489;-83
2022/08/06 06:05:16;;;;;;;7.00;4.70;;;;;;;;;;5060765;28;20431;-84
2022/08/06 06:07:43;;;;;;;5.78;4.50;;;;;;;;;;5059459;28;20433;-83
2022/08/06 06:10:12;;;;;;;5.22;4.70;;;;;;;;;;5059198;28;20898;-83
2022/08/06 06:12:40;;;;;;;5.60;4.70;;;;;;;;;;5059048;28;20779;-81
2022/08/06 06:15:07;;;;;;;5.05;4.55;;;;;;;;;;5060955;28;20438;-82
2022/08/06 06:17:55;;;;;;;4.82;4.32;;;;;;;;;;5060433;28;20933;-82
2022/08/06 06:20:29;;;;;;;4.75;4.15;;;;;;;;;;5058958;28;20429;-82
2022/08/06 06:22:58;;;;;;;5.38;4.30;;;;;;;;;;5060516;28;20423;-81
2022/08/06 06:25:27;;;;;;;4.63;4.10;;;;;;;;;;5061543;28;20411;-85
2022/08/06 06:27:57;;;;;;;5.93;3.85;;;;;;;;;;5060295;28;20432;-81
2022/08/06 06:30:25;;;;;;;5.65;3.90;;;;;;;;;;5062060;28;20415;-83
2022/08/06 06:32:55;;;;;;;4.18;3.75;;;;;;;;;;5059477;28;20436;-82
2022/08/06 06:35:27;;;;;;;3.88;3.55;;;;;;;;;;5063360;28;20424;-81
2022/08/06 06:37:56;;;;;;;4.83;3.47;;;;;;;;;;5065110;28;21122;-82
2022/08/06 06:40:41;;;;;;;3.38;3.08;;;;;;;;;;5067764;28;20773;-81
2022/08/06 06:43:12;;;;;;;4.93;3.42;;;;;;;;;;5065110;28;20428;-82
2022/08/06 06:45:42;;;;;;;6.25;3.20;;;;;;;;;;5065641;28;20911;-82
2022/08/06 06:48:09;;;;;;;3.83;2.70;;;;;;;;;;5062598;28;21012;-83
2022/08/06 06:50:41;;;;;;;3.17;2.60;;;;;;;;;;5064640;28;20494;-82
2022/08/06 06:53:09;;;;;;;3.40;3.08;;;;;;;;;;5063953;28;20460;-82
2022/08/06 06:55:36;;;;;;;2.83;2.40;;;;;;;;;;5061246;28;20428;-82
2022/08/06 06:58:07;;;;;;;3.70;2.10;;;;;;;;;;5059130;28;20443;-83
2022/08/06 07:00:34;;;;;;;2.30;1.90;;;;;;;;;;5062169;28;20433;-83
2022/08/06 07:03:01;;;;;;;3.13;2.10;;;;;;;;;;5059847;28;20949;-83
2022/08/06 07:05:28;;;;;;;3.00;1.90;;;;;;;;;;5061973;28;20423;-83
2022/08/06 07:07:56;;;;;;;3.70;1.70;;;;;;;;;;5064712;28;20440;-84
2022/08/06 07:10:24;;;;;;;3.20;1.60;;;;;;;;;;5062710;28;20431;-83
2022/08/06 07:12:50;;;;;;;3.42;1.70;;;;;;;;;;5060630;28;20416;-81
2022/08/06 07:15:18;;;;;;;4.20;1.80;;;;;;;;;;5063678;28;20424;-82
2022/08/06 07:17:45;;;;;;;1.65;1.50;;;;;;;;;;5061180;28;20411;-82
2022/08/06 07:20:13;;;;;;;2.25;1.60;;;;;;;;;;5064087;28;20513;-81
2022/08/06 07:22:43;;;;;;;3.40;1.40;;;;;;;;;;5062603;28;20431;-82
2022/08/06 07:25:13;;;;;;;2.10;1.20;;;;;;;;;;5064579;28;20424;-80
2022/08/06 07:27:41;;;;;;;4.65;1.10;;;;;;;;;;5062502;28;20408;-83
2022/08/06 07:30:08;;;;;;;1.58;0.80;;;;;;;;;;5062784;28;20460;-83
2022/08/06 07:32:35;;;;;;;2.22;1.10;;;;;;;;;;5064250;28;20442;-82
2022/08/06 07:35:02;;;;;;;3.80;1.10;;;;;;;;;;5081163;28;20483;-83
2022/08/06 07:37:30;;;;;;;2.67;1.20;;;;;;;;;;5064586;28;20435;-82
2022/08/06 07:39:58;;;;;;;1.65;1.00;;;;;;;;;;5065370;28;20424;-81
2022/08/06 07:42:27;;;;;;;2.33;1.05;;;;;;;;;;5063821;28;20473;-81
2022/08/06 07:44:56;;;;;;;1.70;1.13;;;;;;;;;;5064803;28;20425;-82
2022/08/06 07:47:25;;;;;;;2.03;1.30;;;;;;;;;;5061066;28;20413;-82
2022/08/06 07:49:55;;;;;;;2.13;1.23;;;;;;;;;;5064149;28;20942;-82
2022/08/06 07:52:24;;;;;;;1.58;0.90;;;;;;;;;;5064474;28;20417;-84
2022/08/06 07:54:51;;;;;;;3.03;1.10;;;;;;;;;;5062876;28;20491;-81
2022/08/06 07:57:17;;;;;;;2.63;1.20;;;;;;;;;;5063003;28;20889;-81
2022/08/06 07:59:46;;;;;;;1.45;0.80;;;;;;;;;;5061775;28;20417;-81
2022/08/06 08:02:13;;;;;;;2.25;0.85;;;;;;;;;;5061781;28;20417;-82
2022/08/06 08:07:26;;;;;;;2.40;0.60;;;;;;;;;;5062502;28;20475;-82
2022/08/06 08:09:52;;;;;;;2.10;0.90;;;;;;;;;;5063232;28;20422;-81
2022/08/06 08:12:19;;;;;;;2.00;0.80;;;;;;;;;;5064114;28;20416;-83
2022/08/06 08:14:48;;;;;;;0.90;0.80;;;;;;;;;;5063650;28;20412;-81
2022/08/06 08:17:15;;;;;;;1.73;0.70;;;;;;;;;;5058798;28;20415;-81
2022/08/06 08:19:42;;;;;;;1.77;0.57;;;;;;;;;;5062345;28;20446;-82
2022/08/06 08:22:10;;;;;;;2.67;0.68;;;;;;;;;;5063715;28;20937;-83
2022/08/06 08:24:37;;;;;;;1.23;0.63;;;;;;;;;;5061984;28;20433;-82
2022/08/06 08:27:07;;;;;;;3.80;0.70;;;;;;;;;;5076796;28;20475;-81
2022/08/06 08:29:33;;;;;;;1.10;0.50;;;;;;;;;;5065233;28;20981;-81
2022/08/06 08:32:01;;;;;;;4.00;1.10;;;;;;;;;;5061554;28;20951;-81
2022/08/06 08:34:28;;;;;;;2.00;0.80;;;;;;;;;;5063690;28;20438;-81
2022/08/06 08:36:54;;;;;;;2.40;0.77;;;;;;;;;;5065434;28;20483;-81
2022/08/06 08:39:20;;;;;;;1.15;0.70;;;;;;;;;;5063137;28;20436;-83
2022/08/06 08:41:48;;;;;;;0.80;0.60;;;;;;;;;;5063136;28;20412;-82
2022/08/06 08:44:15;;;;;;;2.22;0.70;;;;;;;;;;5063551;28;20429;-83
2022/08/06 08:46:42;;;;;;;0.95;0.60;;;;;;;;;;5062164;28;20804;-81
2022/08/06 08:49:14;;;;;;;1.90;1.00;;;;;;;;;;5062243;28;20777;-82
2022/08/06 08:51:41;;;;;;;2.45;0.80;;;;;;;;;;5062554;28;20822;-83
2022/08/06 08:54:09;;;;;;;1.60;0.43;;;;;;;;;;5063355;28;20433;-83
2022/08/06 08:56:37;;;;;;;0.90;0.60;;;;;;;;;;5062710;28;20439;-81
2022/08/06 08:59:04;;;;;;;3.50;0.50;;;;;;;;;;5063264;28;20432;-82
2022/08/06 09:01:31;;;;;;;1.90;0.60;;;;;;;;;;5063912;28;20431;-82
2022/08/06 09:03:59;;;;;;;1.35;0.40;;;;;;;;;;5060651;28;20419;-82
2022/08/06 09:06:27;;;;;;;1.50;0.60;;;;;;;;;;5059346;28;20415;-81
2022/08/06 09:08:55;;;;;;;1.20;0.50;;;;;;;;;;5061818;28;20471;-82
2022/08/06 09:11:22;;;;;;;1.50;0.70;;;;;;;;;;5061530;28;20435;-82
2022/08/06 09:13:48;;;;;;;1.15;0.60;;;;;;;;;;5058273;28;22074;-82
2022/08/06 09:16:15;;;;;;;1.53;0.67;;;;;;;;;;5058239;28;20431;-82
2022/08/06 09:18:41;;;;;;;1.00;0.50;;;;;;;;;;5061540;28;20412;-82
2022/08/06 09:21:08;;;;;;;2.30;0.60;;;;;;;;;;5062313;28;20433;-82
2022/08/06 09:23:39;;;;;;;3.47;0.90;;;;;;;;;;5061396;28;20420;-83
2022/08/06 09:26:06;;;;;;;2.90;0.70;;;;;;;;;;5061544;28;20434;-83
2022/08/06 09:28:36;;;;;;;0.80;0.50;;;;;;;;;;5059543;28;20426;-83
2022/08/06 09:31:04;;;;;;;0.70;0.60;;;;;;;;;;5063080;28;20963;-82
2022/08/06 09:33:31;;;;;;;0.75;0.50;;;;;;;;;;5062123;28;20428;-82
2022/08/06 09:35:59;;;;;;;2.50;0.70;;;;;;;;;;5060981;28;20445;-83
2022/08/06 09:38:29;;;;;;;0.90;0.60;;;;;;;;;;5059497;28;21116;-85
2022/08/06 09:41:19;;;;;;;3.45;0.90;;;;;;;;;;5061570;28;20505;-82
2022/08/06 09:43:46;;;;;;;1.50;0.70;;;;;;;;;;5059975;28;20423;-81
2022/08/06 09:46:13;;;;;;;1.30;0.60;;;;;;;;;;5062506;28;20416;-81
2022/08/06 09:48:55;;;;;;;0.70;0.45;;;;;;;;;;5060999;28;20426;-82
2022/08/06 09:51:22;;;;;;;1.00;0.50;;;;;;;;;;5061405;28;20435;-81
2022/08/06 09:53:52;;;;;;;4.13;0.60;;;;;;;;;;5061643;28;20443;-81
2022/08/06 09:56:20;;;;;;;1.83;0.50;;;;;;;;;;5062406;28;20927;-81
2022/08/06 09:58:47;;;;;;;0.98;0.40;;;;;;;;;;5062477;28;20421;-82
2022/08/06 10:01:15;;;;;;;0.90;0.60;;;;;;;;;;5061502;28;20561;-82
2022/08/06 10:03:41;;;;;;;1.25;0.60;;;;;;;;;;5062371;28;20789;-82
2022/08/06 10:06:09;;;;;;;1.10;0.50;;;;;;;;;;5063982;28;20923;-83
2022/08/06 10:08:35;;;;;;;1.63;0.60;;;;;;;;;;5060976;28;20433;-81
2022/08/06 10:11:03;;;;;;;1.17;0.50;;;;;;;;;;5067574;28;20439;-81
2022/08/06 10:13:32;;;;;;;1.00;0.60;;;;;;;;;;5066960;28;20417;-82
2022/08/06 10:15:59;;;;;;;2.70;0.70;;;;;;;;;;5067499;28;20427;-82
2022/08/06 10:18:36;;;;;;;1.15;0.57;;;;;;;;;;5063597;28;21265;-81
2022/08/06 10:21:03;;;;;;;1.60;0.60;;;;;;;;;;5066736;28;20444;-82
2022/08/06 10:23:32;;;;;;;2.63;0.60;;;;;;;;;;5064072;28;20786;-83
2022/08/06 10:25:59;;;;;;;1.10;0.70;;;;;;;;;;5067245;28;20453;-82
2022/08/06 10:28:26;;;;;;;1.60;0.60;;;;;;;;;;5064624;28;20432;-81
2022/08/06 10:30:55;;;;;;;1.40;0.65;;;;;;;;;;5062387;28;20419;-81
2022/08/06 10:33:23;;;;;;;1.13;0.63;;;;;;;;;;5064703;28;20936;-80
2022/08/06 10:35:52;;;;;;;1.55;0.70;;;;;;;;;;5066357;28;20435;-81
2022/08/06 10:38:26;;;;;;;1.42;0.63;;;;;;;;;;5066136;28;20432;-80
2022/08/06 10:40:53;;;;;;;0.95;0.70;;;;;;;;;;5064119;28;20432;-81
2022/08/06 10:43:20;;;;;;;1.90;0.70;;;;;;;;;;5064181;28;20435;-81
2022/08/06 10:45:47;;;;;;;1.13;0.50;;;;;;;;;;5067760;28;20429;-81
2022/08/06 10:48:15;;;;;;;2.80;0.63;;;;;;;;;;5067725;28;20421;-81
2022/08/06 10:50:41;;;;;;;2.60;0.68;;;;;;;;;;5065471;28;20434;-80
2022/08/06 10:53:10;;;;;;;2.50;0.80;;;;;;;;;;5065921;28;20430;-80
2022/08/06 10:55:36;;;;;;;1.40;0.80;;;;;;;;;;5067207;28;20434;-81
2022/08/06 10:58:03;;;;;;;1.08;0.50;;;;;;;;;;5064632;28;20439;-81
2022/08/06 11:00:32;;;;;;;1.00;0.57;;;;;;;;;;5067473;28;20430;-82
2022/08/06 11:03:02;;;;;;;2.80;0.80;;;;;;;;;;5063997;28;20419;-81
2022/08/06 11:05:34;;;;;;;1.40;0.60;;;;;;;;;;5064901;28;20431;-81
2022/08/06 11:08:10;;;;;;;1.60;0.70;;;;;;;;;;5066417;28;20411;-81
2022/08/06 11:10:56;;;;;;;0.80;0.40;;;;;;;;;;5067333;28;20464;-82
2022/08/06 11:13:28;;;;;;;1.87;0.70;;;;;;;;;;5064894;28;20933;-82
2022/08/06 11:15:56;;;;;;;1.70;0.80;;;;;;;;;;5066274;28;20923;-82
2022/08/06 11:18:22;;;;;;;2.10;0.90;;;;;;;;;;5063923;28;20427;-81
2022/08/06 11:20:52;;;;;;;1.50;0.60;;;;;;;;;;5063873;28;20433;-81
2022/08/06 11:23:29;;;;;;;3.80;0.70;;;;;;;;;;5063924;28;20453;-80
2022/08/06 11:25:56;;;;;;;2.10;0.90;;;;;;;;;;5065387;28;20429;-82
2022/08/06 11:28:38;;;;;;;3.05;0.70;;;;;;;;;;5062906;28;20429;-82
2022/08/06 11:31:05;;;;;;;2.08;0.90;;;;;;;;;;5065074;28;20443;-80
2022/08/06 11:33:46;;;;;;;2.55;0.90;;;;;;;;;;5064115;28;20431;-81
2022/08/06 11:36:25;;;;;;;2.00;0.80;;;;;;;;;;5064235;28;20841;-81
2022/08/06 11:38:59;;;;;;;1.80;0.60;;;;;;;;;;5061668;28;20449;-83
2022/08/06 11:41:27;;;;;;;3.00;1.00;;;;;;;;;;5064480;28;20436;-82
2022/08/06 11:44:07;;;;;;;2.58;0.90;;;;;;;;;;5063571;28;20429;-83
2022/08/06 11:46:34;;;;;;;2.05;0.70;;;;;;;;;;5065117;28;20427;-81
2022/08/06 11:49:15;;;;;;;2.22;1.00;;;;;;;;;;5046216;28;20422;-81
2022/08/06 11:51:44;;;;;;;2.38;0.80;;;;;;;;;;5045471;28;20440;-83
2022/08/06 11:54:14;;;;;;;3.80;0.90;;;;;;;;;;5062361;28;20424;-82
2022/08/06 11:56:59;;;;;;;4.05;0.80;;;;;;;;;;5063690;28;20437;-82
2022/08/06 11:59:26;;;;;;;2.50;0.60;;;;;;;;;;5063083;28;20435;-82
2022/08/06 12:01:53;;;;;;;2.33;0.63;;;;;;;;;;5063447;28;20425;-82
2022/08/06 12:04:38;;;;;;;3.95;1.00;;;;;;;;;;5062814;28;20832;-82
2022/08/06 12:07:17;;;;;;;4.88;1.05;;;;;;;;;;5065652;28;20507;-82
2022/08/06 12:09:43;;;;;;;1.50;0.80;;;;;;;;;;5065153;28;20428;-82
2022/08/06 12:12:29;;;;;;;4.20;0.93;;;;;;;;;;5062829;28;20900;-81
2022/08/06 12:14:56;;;;;;;2.45;0.80;;;;;;;;;;5065644;28;20432;-81
2022/08/06 12:17:23;;;;;;;2.60;0.90;;;;;;;;;;5064622;28;20432;-84
2022/08/06 12:19:50;;;;;;;2.80;1.00;;;;;;;;;;5064226;28;20510;-81
2022/08/06 12:22:19;;;;;;;1.10;0.70;;;;;;;;;;5062905;28;20924;-81
2022/08/06 12:24:46;;;;;;;4.93;1.10;;;;;;;;;;5063540;28;20423;-81
2022/08/06 12:27:13;;;;;;;29.08;21.98;;;;;;;;;;5063658;28;21015;-82
2022/08/06 12:29:39;;;;;;;1.95;0.80;;;;;;;;;;5063284;28;20440;-82
2022/08/06 12:32:22;;;;;;;1.73;1.10;;;;;;;;;;5062317;28;20412;-85
2022/08/06 12:34:48;;;;;;;3.80;0.90;;;;;;;;;;5065090;28;20904;-82
2022/08/06 12:37:14;;;;;;;2.42;0.90;;;;;;;;;;5062647;28;20420;-82
2022/08/06 12:42:26;;;;;;;1.88;1.00;;;;;;;;;;5063293;28;20467;-82
2022/08/06 12:44:54;;;;;;;2.17;1.00;;;;;;;;;;5061984;28;20903;-82
2022/08/06 12:47:21;;;;;;;2.20;1.10;;;;;;;;;;5062758;28;20416;-82
2022/08/06 12:49:47;;;;;;;2.60;0.80;;;;;;;;;;5064274;28;20788;-83
2022/08/06 12:52:16;;;;;;;2.90;1.00;;;;;;;;;;5061187;28;20416;-81
2022/08/06 12:54:44;;;;;;;2.92;1.00;;;;;;;;;;5065171;28;20429;-82
2022/08/06 12:57:20;;;;;;;2.78;1.10;;;;;;;;;;5062587;28;20423;-82
2022/08/06 12:59:46;;;;;;;1.40;1.00;;;;;;;;;;5063078;28;20435;-81
2022/08/06 13:02:13;;;;;;;1.80;1.00;;;;;;;;;;5065171;28;20420;-82
2022/08/06 13:04:42;;;;;;;2.83;1.05;;;;;;;;;;5064413;28;20427;-82
2022/08/06 13:07:09;;;;;;;1.60;0.83;;;;;;;;;;5063407;28;20424;-83
2022/08/06 13:09:36;;;;;;;5.00;1.40;;;;;;;;;;5062166;28;20420;-82
2022/08/06 13:12:15;;;;;;;2.10;1.20;;;;;;;;;;5064623;28;20419;-82
2022/08/06 13:14:52;;;;;;;3.30;1.73;;;;;;;;;;5063082;28;20430;-81
2022/08/06 13:17:21;;;;;;;2.97;2.30;;;;;;;;;;5063426;28;20433;-82
2022/08/06 13:19:54;;;;;;;3.15;2.40;;;;;;;;;;5061268;28;20439;-82
2022/08/06 13:22:21;;;;;;;3.97;2.20;;;;;;;;;;5063044;28;20420;-82
2022/08/06 13:24:47;;;;;;;2.65;1.60;;;;;;;;;;5065247;28;20510;-82
2022/08/06 13:27:15;;;;;;;3.25;1.40;;;;;;;;;;5063400;28;20932;-81
2022/08/06 13:29:56;;;;;;;3.70;1.60;;;;;;;;;;5063696;28;20805;-82
2022/08/06 13:32:25;;;;;;;5.15;2.10;;;;;;;;;;5056708;28;20806;-83
2022/08/06 13:34:53;;;;;;;2.00;1.70;;;;;;;;;;5044851;28;20437;-81
2022/08/06 13:37:35;;;;;;;2.88;1.88;;;;;;;;;;5043026;28;20474;-82
2022/08/06 13:40:01;;;;;;;3.40;2.60;;;;;;;;;;5043898;28;20433;-84
2022/08/06 13:42:29;;;;;;;4.57;2.47;;;;;;;;;;5041335;28;20418;-81
2022/08/06 13:44:55;;;;;;;3.95;2.20;;;;;;;;;;5047514;28;20432;-82
2022/08/06 13:47:27;;;;;;;4.57;2.60;;;;;;;;;;5046109;28;20500;-81
2022/08/06 13:49:54;;;;;;;6.30;2.60;;;;;;;;;;5048455;28;20433;-82
2022/08/06 13:52:20;;;;;;;3.97;2.40;;;;;;;;;;5047783;28;21072;-82
2022/08/06 13:54:47;;;;;;;4.30;3.00;;;;;;;;;;5047256;28;20437;-82
2022/08/06 13:57:13;;;;;;;6.40;3.60;;;;;;;;;;5046437;28;20430;-82
2022/08/06 13:59:41;;;;;;;4.00;3.47;;;;;;;;;;5047119;28;20896;-82
2022/08/06 14:02:08;;;;;;;4.82;3.97;;;;;;;;;;5050678;28;20422;-82
2022/08/06 14:04:34;;;;;;;5.87;3.97;;;;;;;;;;5066241;28;20433;-82
2022/08/06 14:07:01;;;;;;;5.75;4.07;;;;;;;;;;5066540;28;20435;-82
2022/08/06 14:09:30;;;;;;;4.22;3.80;;;;;;;;;;5067225;28;20438;-82
2022/08/06 14:11:57;;;;;;;4.50;3.80;;;;;;;;;;5068182;28;20430;-83
2022/08/06 14:14:24;;;;;;;5.25;3.80;;;;;;;;;;5066837;28;20472;-83
2022/08/06 14:16:52;;;;;;;5.93;4.30;;;;;;;;;;5068441;28;20456;-82
2022/08/06 14:19:19;;;;;;;6.38;4.30;;;;;;;;;;5063978;28;20440;-82
2022/08/06 14:21:45;;;;;;;6.88;4.43;;;;;;;;;;5062588;28;20457;-83
2022/08/06 14:24:11;;;;;;;5.88;4.50;;;;;;;;;;5067039;28;20430;-81
2022/08/06 14:26:38;;;;;;;6.75;5.50;;;;;;;;;;5065344;28;20971;-83
2022/08/06 14:29:04;;;;;;;7.60;5.50;;;;;;;;;;5066700;28;20445;-83
2022/08/06 14:31:31;;;;;;;7.83;5.63;;;;;;;;;;5065157;28;20421;-82
2022/08/06 14:34:00;;;;;;;7.00;5.63;;;;;;;;;;5068361;28;20433;-81
2022/08/06 14:36:26;;;;;;;9.18;6.35;;;;;;;;;;5063263;28;20450;-80
2022/08/06 14:38:53;;;;;;;7.40;5.90;;;;;;;;;;5067215;28;20420;-80
2022/08/06 14:46:48;;;;;;;8.80;6.35;;;;;;;;;;5068235;28;20418;-82
2022/08/06 14:49:16;;;;;;;7.00;5.80;;;;;;;;;;5069199;28;20418;-81
2022/08/06 14:51:42;;;;;;;7.53;6.30;;;;;;;;;;5068297;28;20416;-82
2022/08/06 14:54:10;;;;;;;7.53;6.72;;;;;;;;;;5069978;28;20417;-80
2022/08/06 14:56:36;;;;;;;9.57;7.18;;;;;;;;;;5069150;28;20409;-80
2022/08/06 14:59:08;;;;;;;7.85;7.05;;;;;;;;;;5066115;28;20423;-82
2022/08/06 15:01:35;;;;;;;8.18;7.38;;;;;;;;;;5067106;28;20415;-78
2022/08/06 15:04:01;;;;;;;8.10;7.30;;;;;;;;;;5084632;28;20431;-81